MMDO/DGO METAR and TAF weather

Enter ICAO airport designator
Station Type Date Time Source
MMDO METAR 2019/12/08 02:43 UTC NOAA

MMDO 080243Z 19009KT 7SM SKC 17/00 A3033 RMK SLP188 52014 962


Station Type Date Time Source
MMDO Decoded METAR 2019/12/08 02:43 UTC NOAA

Durango Airport, Mexico (MMDO) 24-08N 104-32W
Dec 07, 2019 - 09:43 PM EST / 2019.12.08 0243 UTC
Wind: from the S (190 degrees) at 10 MPH (9 KT):0
Visibility: 7 mile(s):0
Sky conditions: clear
Temperature: 62 F (17 C)
Dew Point: 32 F (0 C)
Relative Humidity: 31%
Pressure (altimeter): 30.33 in. Hg (1027 hPa)
Pressure tendency: 0.04 inches (1.4 hPa) higher than three hours ago
ob: MMDO 080243Z 19009KT 7SM SKC 17/00 A3033 RMK SLP188 52014 962
cycle: 2

Station Type Date Time Source
MMDO TAF 2019/12/08 06:57 UTC NOAA

TAF MMDO 080449Z 0806/0906 24004KT P6SM SKC
FM081800 26008KT P6SM SKC
BECMG 0903/0905 06005KT

Example: see airport list